createdAt,value
2023-02-12T00:01:40.636Z,66.28
2023-02-12T00:04:09.023Z,69.84
2023-02-12T00:06:38.823Z,68.77
2023-02-12T00:09:07.002Z,67.14
2023-02-12T00:11:35.176Z,67.77
2023-02-12T00:14:05.260Z,69.33
2023-02-12T00:16:33.577Z,69.70
2023-02-12T00:19:01.739Z,69.16
2023-02-12T00:21:30.019Z,70.96
2023-02-12T00:23:58.836Z,70.01
2023-02-12T00:26:26.982Z,70.69
2023-02-12T00:28:56.093Z,71.73
2023-02-12T00:31:29.000Z,72.84
2023-02-12T00:34:00.816Z,72.00
2023-02-12T00:36:31.421Z,71.96
2023-02-12T00:39:01.102Z,72.68
2023-02-12T00:41:29.890Z,70.90
2023-02-12T00:43:58.327Z,70.12
2023-02-12T00:46:27.068Z,73.29
2023-02-12T00:48:55.500Z,73.09
2023-02-12T00:51:23.663Z,72.50
2023-02-12T00:53:51.942Z,72.35
2023-02-12T00:56:20.528Z,72.47
2023-02-12T00:58:51.076Z,71.71
2023-02-12T01:01:19.404Z,71.45
2023-02-12T01:03:48.122Z,71.95
2023-02-12T01:06:16.393Z,71.59
2023-02-12T01:08:44.669Z,71.09
2023-02-12T01:11:13.977Z,71.33
2023-02-12T01:13:42.147Z,71.10
2023-02-12T01:16:16.667Z,72.64
2023-02-12T01:18:45.455Z,72.58
2023-02-12T01:21:31.241Z,72.23
2023-02-12T01:24:01.104Z,70.47
2023-02-12T01:26:30.768Z,71.05
2023-02-12T01:29:03.635Z,71.38
2023-02-12T01:31:42.968Z,70.92
2023-02-12T01:34:12.185Z,71.02
2023-02-12T01:36:40.559Z,70.78
2023-02-12T01:39:10.877Z,70.75
2023-02-12T01:41:44.381Z,70.17
2023-02-12T01:44:28.531Z,70.40
2023-02-12T01:47:01.206Z,70.34
2023-02-12T01:49:29.582Z,70.72
2023-02-12T01:52:23.869Z,70.33
2023-02-12T01:54:57.101Z,69.30
2023-02-12T01:57:28.845Z,68.77
2023-02-12T02:00:00.464Z,67.82
2023-02-12T02:02:29.260Z,68.39
2023-02-12T02:05:03.974Z,68.51
2023-02-12T02:07:32.986Z,68.05
2023-02-12T02:10:02.792Z,67.94
2023-02-12T02:12:50.222Z,68.76
2023-02-12T02:15:18.491Z,68.60
2023-02-12T02:18:12.983Z,68.05
2023-02-12T02:21:03.787Z,67.67
2023-02-12T02:23:35.028Z,67.69
2023-02-12T02:26:40.682Z,68.16
2023-02-12T02:29:18.071Z,69.90
2023-02-12T02:32:00.909Z,68.97
2023-02-12T02:34:47.600Z,68.94
2023-02-12T02:37:19.049Z,68.49
2023-02-12T02:40:06.468Z,69.33
2023-02-12T02:42:44.338Z,69.10
2023-02-12T02:45:17.886Z,69.39
2023-02-12T02:47:58.851Z,69.69
2023-02-12T02:50:30.913Z,69.98
2023-02-12T02:53:09.714Z,71.10
2023-02-12T02:55:44.095Z,71.60
2023-02-12T02:58:18.803Z,72.34
2023-02-12T03:01:02.554Z,72.76
2023-02-12T03:03:37.070Z,74.38
2023-02-12T03:06:22.545Z,74.50
2023-02-12T03:08:57.151Z,77.54
2023-02-12T03:11:31.688Z,77.11
2023-02-12T03:14:05.264Z,77.24
2023-02-12T03:16:43.860Z,77.12
2023-02-12T03:19:23.014Z,75.44
2023-02-12T03:21:55.388Z,74.73
2023-02-12T03:24:39.230Z,76.24
2023-02-12T03:27:17.746Z,73.20
2023-02-12T03:29:46.227Z,74.18
2023-02-12T03:32:48.603Z,78.92
2023-02-12T03:35:22.274Z,80.50
2023-02-12T03:38:04.066Z,77.35
2023-02-12T03:40:43.335Z,79.66
2023-02-12T03:43:17.445Z,81.41
2023-02-12T03:45:54.770Z,79.50
2023-02-12T03:48:46.664Z,81.88
2023-02-12T03:51:25.880Z,82.41
2023-02-12T03:53:57.420Z,82.92
2023-02-12T03:56:49.376Z,84.05
2023-02-12T03:59:18.575Z,84.00
2023-02-12T04:01:49.541Z,84.35
2023-02-12T04:04:18.245Z,84.02
2023-02-12T04:06:49.441Z,83.43
2023-02-12T04:09:18.782Z,84.47
2023-02-12T04:12:02.379Z,83.53
2023-02-12T04:14:47.451Z,82.70
2023-02-12T04:17:36.616Z,83.59
2023-02-12T04:20:15.020Z,84.80
2023-02-12T04:22:54.667Z,86.27
2023-02-12T04:25:59.598Z,86.91
2023-02-12T04:28:53.372Z,86.26
2023-02-12T04:31:28.563Z,83.88
2023-02-12T04:34:10.619Z,83.24
2023-02-12T04:36:49.573Z,83.11
2023-02-12T04:39:23.375Z,83.07
2023-02-12T04:41:52.308Z,81.40
2023-02-12T04:44:29.459Z,80.88
2023-02-12T04:46:58.327Z,81.56
2023-02-12T04:49:27.408Z,82.22
2023-02-12T04:51:55.988Z,82.26
2023-02-12T04:54:24.702Z,81.61
2023-02-12T04:56:52.958Z,82.11
2023-02-12T04:59:21.341Z,81.10
2023-02-12T05:01:49.695Z,81.35
2023-02-12T05:04:18.916Z,82.23
2023-02-12T05:06:47.493Z,83.04
2023-02-12T05:09:18.385Z,83.68
2023-02-12T05:11:46.819Z,82.48
2023-02-12T05:14:15.393Z,83.37
2023-02-12T05:16:43.872Z,82.41
2023-02-12T05:19:12.254Z,81.95
2023-02-12T05:21:40.632Z,81.45
2023-02-12T05:24:09.625Z,82.55
2023-02-12T05:26:38.124Z,83.54
2023-02-12T05:29:06.425Z,84.61
2023-02-12T05:31:34.982Z,86.10
2023-02-12T05:34:03.352Z,87.39
2023-02-12T05:36:31.615Z,85.14
2023-02-12T05:39:03.223Z,84.54
2023-02-12T05:41:35.237Z,83.90
2023-02-12T05:44:05.498Z,84.22
2023-02-12T05:46:33.941Z,85.50
2023-02-12T05:49:02.102Z,86.51
2023-02-12T05:51:32.313Z,84.92
2023-02-12T05:54:03.938Z,84.96
2023-02-12T05:56:38.192Z,85.15
2023-02-12T05:59:12.386Z,86.66
2023-02-12T06:01:43.140Z,87.05
2023-02-12T06:04:15.986Z,86.75
2023-02-12T06:06:44.929Z,86.43
2023-02-12T06:09:14.016Z,85.89
2023-02-12T06:11:43.212Z,86.31
2023-02-12T06:14:15.777Z,87.77
2023-02-12T06:16:48.987Z,86.95
2023-02-12T06:19:17.046Z,86.48
2023-02-12T06:21:45.973Z,86.49
2023-02-12T06:24:16.195Z,85.50
2023-02-12T06:26:45.370Z,86.03
2023-02-12T06:29:13.634Z,86.36
2023-02-12T06:31:42.653Z,86.84
2023-02-12T06:34:13.161Z,87.93
2023-02-12T06:36:44.773Z,87.99
2023-02-12T06:39:16.161Z,87.11
2023-02-12T06:41:45.260Z,87.66
2023-02-12T06:44:13.951Z,88.38
2023-02-12T06:46:42.386Z,89.23
2023-02-12T06:49:12.854Z,88.38
2023-02-12T06:51:41.555Z,88.73
2023-02-12T06:54:18.094Z,88.25
2023-02-12T06:56:46.303Z,88.43
2023-02-12T06:59:16.988Z,88.33
2023-02-12T07:01:45.730Z,88.08
2023-02-12T07:04:14.448Z,87.65
2023-02-12T07:06:42.765Z,86.67
2023-02-12T07:09:11.043Z,86.30
2023-02-12T07:11:39.424Z,85.87
2023-02-12T07:14:07.604Z,85.51
2023-02-12T07:16:35.939Z,85.31
2023-02-12T07:19:04.300Z,84.65
2023-02-12T07:21:33.216Z,83.86
2023-02-12T07:24:01.662Z,84.71
2023-02-12T07:26:29.893Z,84.84
2023-02-12T07:28:59.100Z,85.72
2023-02-12T07:31:27.672Z,86.23
2023-02-12T07:34:00.364Z,86.35
2023-02-12T07:36:33.242Z,85.40
2023-02-12T07:39:01.792Z,85.29
2023-02-12T07:41:33.000Z,85.08
2023-02-12T07:44:07.663Z,85.07
2023-02-12T07:46:48.580Z,84.07
2023-02-12T07:49:19.811Z,84.52
2023-02-12T07:51:51.085Z,84.26
2023-02-12T07:54:19.540Z,84.23
2023-02-12T07:56:48.139Z,84.09
2023-02-12T07:59:18.940Z,85.27
2023-02-12T08:01:50.106Z,85.46
2023-02-12T08:04:21.489Z,84.57
2023-02-12T08:06:53.811Z,84.24
2023-02-12T08:09:25.365Z,83.33
2023-02-12T08:11:54.068Z,83.61
2023-02-12T08:14:23.151Z,83.62
2023-02-12T08:16:55.201Z,82.36
2023-02-12T08:19:26.604Z,81.59
2023-02-12T08:21:57.476Z,81.23
2023-02-12T08:24:26.322Z,81.27
2023-02-12T08:26:56.304Z,80.97
2023-02-12T08:29:28.163Z,81.07
2023-02-12T08:32:04.388Z,81.39
2023-02-12T08:34:35.248Z,81.26
2023-02-12T08:37:07.635Z,80.89
2023-02-12T08:39:36.016Z,80.42
2023-02-12T08:42:04.511Z,80.56
2023-02-12T08:44:33.184Z,79.83
2023-02-12T08:47:01.356Z,79.55
2023-02-12T08:49:30.650Z,79.08
2023-02-12T08:52:03.327Z,78.64
2023-02-12T08:54:32.866Z,78.05
2023-02-12T08:57:03.557Z,78.13
2023-02-12T08:59:32.079Z,78.34
2023-02-12T09:02:01.051Z,78.37
2023-02-12T09:04:30.128Z,77.71
2023-02-12T09:06:58.380Z,75.58
2023-02-12T09:09:27.289Z,75.90
2023-02-12T09:11:55.574Z,74.29
2023-02-12T09:14:24.633Z,73.18
2023-02-12T09:16:54.685Z,74.37
2023-02-12T09:19:23.405Z,72.49
2023-02-12T09:21:56.783Z,69.94
2023-02-12T09:24:27.970Z,67.42
2023-02-12T09:26:57.265Z,66.31
2023-02-12T09:29:25.841Z,66.02
2023-02-12T09:31:54.230Z,63.06
2023-02-12T09:34:22.757Z,62.97
2023-02-12T09:36:51.239Z,61.82
2023-02-12T09:39:19.411Z,60.51
2023-02-12T09:41:56.504Z,60.55
2023-02-12T09:44:40.031Z,61.26
2023-02-12T09:47:27.043Z,57.26
2023-02-12T09:50:01.157Z,56.92
2023-02-12T09:52:30.860Z,56.14
2023-02-12T09:55:00.999Z,55.14
2023-02-12T09:57:36.361Z,54.46
2023-02-12T10:00:14.950Z,54.67
2023-02-12T10:02:43.329Z,53.37
2023-02-12T10:05:35.258Z,52.43
2023-02-12T10:08:43.019Z,52.97
2023-02-12T10:11:34.277Z,50.58
2023-02-12T10:14:11.252Z,49.33
2023-02-12T10:16:54.474Z,49.20
2023-02-12T10:19:47.537Z,49.23
2023-02-12T10:22:57.113Z,50.01
2023-02-12T10:25:45.430Z,50.60
2023-02-12T10:28:21.023Z,50.43
2023-02-12T10:30:55.067Z,51.58
2023-02-12T10:33:31.868Z,50.35
2023-02-12T10:36:05.468Z,50.02
2023-02-12T10:38:42.714Z,48.61
2023-02-12T10:41:14.810Z,46.09
2023-02-12T10:43:43.287Z,45.40
2023-02-12T10:46:20.313Z,46.36
2023-02-12T10:48:54.276Z,47.19
2023-02-12T10:51:34.944Z,46.44
2023-02-12T10:54:33.122Z,46.93
2023-02-12T10:57:08.918Z,46.28
2023-02-12T10:59:37.527Z,47.29
2023-02-12T11:02:22.831Z,46.83
2023-02-12T11:04:52.508Z,47.09
2023-02-12T11:07:22.254Z,48.21
2023-02-12T11:09:52.476Z,49.28
2023-02-12T11:12:48.503Z,50.36
2023-02-12T11:15:21.188Z,51.94
2023-02-12T11:18:26.472Z,49.83
2023-02-12T11:21:00.540Z,48.29
2023-02-12T11:23:39.874Z,48.47
2023-02-12T11:26:20.430Z,47.64
2023-02-12T11:29:24.151Z,48.47
2023-02-12T11:32:04.949Z,49.86
2023-02-12T11:34:33.711Z,49.77
2023-02-12T11:37:17.869Z,50.26
2023-02-12T11:39:48.748Z,50.54
2023-02-12T11:42:24.430Z,50.86
2023-02-12T11:44:56.131Z,50.46
2023-02-12T11:47:28.777Z,51.74
2023-02-12T11:50:02.866Z,51.98
2023-02-12T11:52:37.939Z,52.37
2023-02-12T11:55:27.797Z,52.73
2023-02-12T11:58:18.084Z,53.06
2023-02-12T12:00:59.168Z,52.86
2023-02-12T12:03:40.696Z,52.47
2023-02-12T12:06:37.303Z,52.29
2023-02-12T12:09:27.180Z,52.17
2023-02-12T12:11:58.622Z,51.57
2023-02-12T12:15:08.162Z,51.18
2023-02-12T12:18:19.753Z,51.04
2023-02-12T12:20:58.780Z,52.31
2023-02-12T12:23:40.788Z,52.72
2023-02-12T12:26:27.181Z,51.73
2023-02-12T12:29:27.923Z,50.92
2023-02-12T12:32:01.651Z,50.48
2023-02-12T12:34:30.225Z,50.68
2023-02-12T12:37:40.673Z,50.29
2023-02-12T12:40:33.751Z,50.76
2023-02-12T12:43:14.328Z,51.33
2023-02-12T12:45:55.149Z,49.96
2023-02-12T12:48:56.005Z,49.07
2023-02-12T12:51:29.911Z,48.70
2023-02-12T12:54:21.741Z,50.25
2023-02-12T12:57:05.585Z,51.31
2023-02-12T13:00:13.073Z,52.10
2023-02-12T13:03:00.102Z,52.69
2023-02-12T13:06:06.978Z,53.00
2023-02-12T13:09:03.923Z,53.63
2023-02-12T13:11:48.889Z,52.36
2023-02-12T13:14:42.766Z,52.30
2023-02-12T13:17:25.275Z,51.50
2023-02-12T13:20:18.334Z,51.67
2023-02-12T13:22:59.825Z,52.32
2023-02-12T13:25:52.412Z,52.69
2023-02-12T13:28:31.332Z,53.18
2023-02-12T13:31:05.080Z,53.24
2023-02-12T13:33:50.884Z,53.10
2023-02-12T13:36:19.257Z,52.43
2023-02-12T13:39:04.635Z,51.98
2023-02-12T13:41:34.856Z,52.53
2023-02-12T13:44:08.969Z,52.47
2023-02-12T13:46:39.909Z,52.03
2023-02-12T13:49:18.116Z,52.40
2023-02-12T13:51:50.504Z,52.67
2023-02-12T13:55:00.239Z,53.06
2023-02-12T13:57:28.621Z,53.20
2023-02-12T13:59:58.394Z,53.01
2023-02-12T14:02:29.818Z,52.91
2023-02-12T14:05:00.988Z,52.90
2023-02-12T14:07:49.168Z,52.48
2023-02-12T14:10:37.308Z,52.97
2023-02-12T14:13:13.873Z,53.56
2023-02-12T14:15:58.290Z,54.16
2023-02-12T14:18:29.267Z,54.71
2023-02-12T14:21:29.863Z,55.06
2023-02-12T14:24:53.579Z,55.14
2023-02-12T14:27:42.334Z,55.01
2023-02-12T14:30:10.504Z,54.72
2023-02-12T14:32:55.574Z,55.32
2023-02-12T14:35:26.614Z,55.35
2023-02-12T14:37:57.752Z,55.82
2023-02-12T14:40:34.960Z,55.99
2023-02-12T14:43:22.153Z,56.29
2023-02-12T14:45:50.955Z,55.94
2023-02-12T14:48:41.362Z,55.88
2023-02-12T14:51:19.612Z,56.02
2023-02-12T14:53:50.593Z,56.66
2023-02-12T14:56:22.770Z,57.47
2023-02-12T14:58:54.420Z,57.23
2023-02-12T15:01:34.674Z,58.19
2023-02-12T15:04:30.597Z,58.22
2023-02-12T15:07:08.610Z,57.81
2023-02-12T15:10:10.222Z,58.33
2023-02-12T15:13:05.889Z,58.02
2023-02-12T15:15:39.887Z,58.97
2023-02-12T15:18:44.922Z,58.66
2023-02-12T15:21:27.940Z,59.41
2023-02-12T15:24:05.540Z,59.17
2023-02-12T15:26:41.410Z,59.51
2023-02-12T15:29:30.353Z,59.00
2023-02-12T15:32:03.171Z,59.00
2023-02-12T15:34:34.864Z,60.09
2023-02-12T15:37:05.624Z,60.34
2023-02-12T15:39:56.329Z,60.84
2023-02-12T15:42:36.073Z,60.54
2023-02-12T15:45:16.656Z,59.96
2023-02-12T15:47:54.842Z,60.19
2023-02-12T15:50:23.945Z,60.84
2023-02-12T15:52:53.115Z,59.82
2023-02-12T15:55:25.818Z,60.52
2023-02-12T15:58:00.345Z,61.16
2023-02-12T16:00:36.764Z,60.49
2023-02-12T16:03:04.985Z,61.16
2023-02-12T16:05:35.309Z,60.71
2023-02-12T16:08:04.106Z,60.35
2023-02-12T16:10:32.576Z,60.03
2023-02-12T16:13:01.156Z,61.33
2023-02-12T16:15:34.928Z,61.42
2023-02-12T16:18:05.285Z,61.57
2023-02-12T16:20:35.132Z,60.62
2023-02-12T16:23:07.536Z,61.53
2023-02-12T16:25:35.861Z,61.89
2023-02-12T16:28:07.400Z,61.95
2023-02-12T16:30:43.217Z,61.43
2023-02-12T16:33:34.779Z,61.49
2023-02-12T16:36:06.313Z,62.20
2023-02-12T16:38:46.608Z,61.58
2023-02-12T16:41:20.904Z,62.56
2023-02-12T16:44:11.299Z,61.29
2023-02-12T16:46:48.769Z,61.92
2023-02-12T16:49:19.074Z,61.68
2023-02-12T16:51:48.533Z,62.69
2023-02-12T16:54:26.009Z,63.67
2023-02-12T16:56:55.213Z,62.41
2023-02-12T16:59:23.352Z,62.66
2023-02-12T17:02:03.987Z,62.84
2023-02-12T17:04:32.324Z,62.81
2023-02-12T17:07:00.595Z,62.35
2023-02-12T17:09:30.408Z,62.21
2023-02-12T17:11:58.582Z,64.51
2023-02-12T17:14:26.758Z,63.95
2023-02-12T17:16:54.955Z,63.51
2023-02-12T17:19:23.308Z,64.26
2023-02-12T17:21:52.202Z,65.20
2023-02-12T17:24:26.520Z,64.01
2023-02-12T17:26:55.828Z,64.14
2023-02-12T17:29:25.454Z,64.63
2023-02-12T17:31:54.175Z,64.34
2023-02-12T17:34:23.497Z,65.15
2023-02-12T17:36:53.207Z,64.90
2023-02-12T17:39:21.503Z,64.98
2023-02-12T17:41:49.995Z,67.12
2023-02-12T17:44:18.131Z,65.71
2023-02-12T17:46:47.064Z,65.43
2023-02-12T17:49:15.423Z,65.85
2023-02-12T17:51:43.694Z,65.36
2023-02-12T17:54:12.503Z,65.17
2023-02-12T17:56:40.962Z,64.82
2023-02-12T17:59:10.568Z,65.02
2023-02-12T18:01:40.002Z,65.44
2023-02-12T18:04:08.262Z,65.98
2023-02-12T18:06:36.400Z,65.27
2023-02-12T18:09:04.595Z,66.83
2023-02-12T18:11:33.285Z,68.15
2023-02-12T18:14:02.622Z,67.63
2023-02-12T18:16:33.144Z,67.52
2023-02-12T18:19:04.545Z,68.75
2023-02-12T18:21:35.173Z,67.64
2023-02-12T18:24:03.560Z,68.12
2023-02-12T18:26:32.166Z,70.41
2023-02-12T18:29:01.250Z,69.34
2023-02-12T18:31:29.711Z,69.67
2023-02-12T18:33:58.210Z,68.57
2023-02-12T18:36:26.692Z,70.98
2023-02-12T18:38:54.968Z,69.04
2023-02-12T18:41:25.818Z,68.85
2023-02-12T18:43:55.095Z,70.25
2023-02-12T18:46:26.985Z,70.58
2023-02-12T18:48:56.269Z,70.03
2023-02-12T18:51:27.995Z,71.45
2023-02-12T18:54:01.939Z,72.48
2023-02-12T18:56:33.582Z,71.55
2023-02-12T18:59:05.072Z,72.65
2023-02-12T19:01:34.849Z,73.18
2023-02-12T19:04:06.405Z,72.81
2023-02-12T19:06:40.000Z,73.06
2023-02-12T19:09:09.613Z,72.60
2023-02-12T19:11:37.959Z,72.51
2023-02-12T19:14:06.370Z,72.51
2023-02-12T19:16:34.853Z,72.69
2023-02-12T19:19:03.228Z,72.17
2023-02-12T19:21:31.823Z,72.55
2023-02-12T19:24:02.187Z,72.16
2023-02-12T19:26:31.790Z,71.89
2023-02-12T19:29:00.846Z,71.42
2023-02-12T19:31:33.077Z,71.55
2023-02-12T19:34:14.735Z,71.74
2023-02-12T19:36:43.776Z,72.01
2023-02-12T19:39:17.852Z,72.04
2023-02-12T19:41:47.272Z,72.09
2023-02-12T19:44:19.253Z,72.52
2023-02-12T19:46:49.070Z,71.91
2023-02-12T19:49:20.809Z,72.45
2023-02-12T19:51:49.795Z,72.19
2023-02-12T19:54:20.127Z,72.97
2023-02-12T19:56:49.240Z,72.32
2023-02-12T19:59:22.123Z,72.30
2023-02-12T20:01:50.695Z,72.29
2023-02-12T20:04:21.546Z,72.27
2023-02-12T20:06:51.572Z,72.18
2023-02-12T20:09:21.384Z,72.30
2023-02-12T20:11:50.960Z,72.12
2023-02-12T20:14:22.886Z,71.80
2023-02-12T20:16:53.984Z,71.98
2023-02-12T20:19:28.593Z,71.70
2023-02-12T20:21:58.072Z,71.36
2023-02-12T20:24:29.697Z,72.30
2023-02-12T20:26:59.481Z,72.59
2023-02-12T20:29:28.174Z,73.88
2023-02-12T20:31:57.199Z,74.61
2023-02-12T20:34:26.243Z,73.97
2023-02-12T20:36:54.426Z,73.29
2023-02-12T20:39:23.227Z,72.80
2023-02-12T20:41:52.412Z,72.29
2023-02-12T20:44:22.019Z,73.21
2023-02-12T20:46:56.114Z,73.33
2023-02-12T20:49:26.972Z,72.73
2023-02-12T20:51:55.562Z,73.06
2023-02-12T20:54:25.130Z,74.09
2023-02-12T20:56:53.329Z,73.50
2023-02-12T20:59:21.511Z,72.45
2023-02-12T21:01:49.996Z,73.03
2023-02-12T21:04:19.737Z,72.88
2023-02-12T21:06:48.767Z,72.32
2023-02-12T21:09:19.143Z,74.00
2023-02-12T21:11:48.303Z,73.68
2023-02-12T21:14:22.626Z,74.62
2023-02-12T21:17:10.049Z,76.09
2023-02-12T21:19:38.832Z,76.01
2023-02-12T21:22:08.546Z,78.75
2023-02-12T21:24:36.921Z,76.55
2023-02-12T21:27:05.223Z,75.35
2023-02-12T21:29:33.590Z,78.17
2023-02-12T21:32:07.908Z,76.65
2023-02-12T21:34:36.471Z,76.07
2023-02-12T21:37:04.645Z,77.60
2023-02-12T21:39:32.939Z,74.86
2023-02-12T21:42:03.642Z,74.07
2023-02-12T21:44:35.475Z,73.94
2023-02-12T21:47:04.469Z,72.48
2023-02-12T21:49:32.685Z,72.94
2023-02-12T21:52:02.915Z,72.14
2023-02-12T21:54:31.786Z,72.35
2023-02-12T21:57:01.099Z,72.61
2023-02-12T21:59:31.940Z,72.91
2023-02-12T22:02:02.063Z,72.73
2023-02-12T22:04:30.678Z,72.91
2023-02-12T22:07:03.392Z,72.79
2023-02-12T22:09:32.399Z,72.65
2023-02-12T22:12:00.793Z,72.85
2023-02-12T22:14:29.165Z,73.35
2023-02-12T22:16:58.044Z,73.89
2023-02-12T22:19:26.219Z,75.41
2023-02-12T22:21:54.605Z,75.84
2023-02-12T22:24:22.770Z,75.39
2023-02-12T22:26:51.044Z,75.11
2023-02-12T22:29:19.324Z,75.03
2023-02-12T22:31:47.914Z,75.36
2023-02-12T22:34:19.239Z,75.26
2023-02-12T22:36:48.056Z,75.22
2023-02-12T22:39:17.816Z,75.16
2023-02-12T22:41:46.365Z,75.15
2023-02-12T22:44:16.114Z,75.46
2023-02-12T22:46:44.931Z,76.26
2023-02-12T22:49:14.143Z,76.50
2023-02-12T22:51:42.809Z,76.53
2023-02-12T22:54:16.938Z,76.23
2023-02-12T22:56:45.816Z,76.74
2023-02-12T22:59:13.998Z,76.23
2023-02-12T23:01:42.470Z,76.87
2023-02-12T23:04:16.704Z,76.91
2023-02-12T23:06:45.777Z,77.41
2023-02-12T23:09:17.874Z,78.16
2023-02-12T23:11:46.849Z,78.48
2023-02-12T23:14:15.184Z,78.26
2023-02-12T23:16:43.654Z,77.74
2023-02-12T23:19:12.293Z,77.28
2023-02-12T23:21:40.770Z,76.67
2023-02-12T23:24:13.347Z,78.15
2023-02-12T23:26:41.625Z,78.02
2023-02-12T23:29:10.108Z,78.16
2023-02-12T23:31:38.572Z,78.39
2023-02-12T23:34:06.972Z,79.29
2023-02-12T23:36:35.396Z,79.93
2023-02-12T23:39:06.013Z,78.50
2023-02-12T23:41:35.088Z,78.25
2023-02-12T23:44:03.897Z,78.77
2023-02-12T23:46:32.350Z,78.71
2023-02-12T23:49:00.630Z,78.31
2023-02-12T23:51:29.214Z,78.09
2023-02-12T23:53:57.593Z,80.00
2023-02-12T23:56:26.994Z,79.90
2023-02-12T23:58:57.326Z,80.29
